Time;durP1;ratioP1;P1;durP2;ratioP2;P2;SDS_P1;SDS_P2;PMS_P1;PMS_P2;Temp;Humidity;BMP_temperature;BMP_pressure;BME280_temperature;BME280_humidity;BME280_pressure;Samples;Min_cycle;Max_cycle;Signal;HPM_P1;HPM_P2
2023/08/10 04:06:29;;;;;;;;;11.33;10.00;;;;;;;;6290515;46;10000400;-52
2023/08/10 04:12:36;;;;;;;;;15.00;14.00;;;;;;;;6491353;31;9041;-49
2023/08/10 04:18:42;;;;;;;;;15.00;15.00;;;;;;;;6489769;46;8940;-52
2023/08/10 04:24:44;;;;;;;;;11.00;10.00;;;;;;;;6491416;46;8906;-52
2023/08/10 04:30:47;;;;;;;;;9.67;9.33;;;;;;;;6490767;39;8919;-49
2023/08/10 04:36:49;;;;;;;;;10.00;9.33;;;;;;;;6490036;39;8856;-49
2023/08/10 04:42:55;;;;;;;;;15.00;15.00;;;;;;;;6491401;39;9067;-52
2023/08/10 04:48:57;;;;;;;;;12.67;11.00;;;;;;;;6535257;36;8956;-51
2023/08/10 04:54:59;;;;;;;;;13.00;11.67;;;;;;;;6490709;39;8858;-52
2023/08/10 05:01:04;;;;;;;;;14.00;12.00;;;;;;;;6490379;39;8939;-53
2023/08/10 05:07:07;;;;;;;;;14.00;14.00;;;;;;;;6490168;39;8919;-50
2023/08/10 05:13:09;;;;;;;;;12.50;11.00;;;;;;;;6487714;39;9473;-53
2023/08/10 05:19:12;;;;;;;;;15.33;11.00;;;;;;;;6489138;39;8975;-53
2023/08/10 05:25:15;;;;;;;;;12.33;12.33;;;;;;;;6488410;47;8901;-52
2023/08/10 05:31:20;;;;;;;;;14.00;12.00;;;;;;;;6489328;31;8903;-51
2023/08/10 05:37:22;;;;;;;;;13.75;12.00;;;;;;;;6487229;39;9006;-51
2023/08/10 05:43:25;;;;;;;;;12.25;12.25;;;;;;;;6486537;39;8903;-50
2023/08/10 05:49:28;;;;;;;;;11.00;11.00;;;;;;;;6488229;39;8846;-57
2023/08/10 05:55:30;;;;;;;;;10.50;9.00;;;;;;;;6489800;46;8847;-54
2023/08/10 06:01:32;;;;;;;;;9.50;9.50;;;;;;;;6489607;39;8938;-51
2023/08/10 06:07:36;;;;;;;;;11.75;10.25;;;;;;;;6489497;39;8919;-51
2023/08/10 06:13:41;;;;;;;;;10.25;10.25;;;;;;;;6490610;31;8917;-54
2023/08/10 06:19:52;;;;;;;;;11.00;10.75;;;;;;;;6488256;31;8859;-51
2023/08/10 06:26:01;;;;;;;;;9.00;9.00;;;;;;;;6488970;46;8826;-52
2023/08/10 06:32:06;;;;;;;;;10.00;10.00;;;;;;;;6488946;46;8863;-54
2023/08/10 06:38:09;;;;;;;;;9.25;9.25;;;;;;;;6488591;39;8846;-54
2023/08/10 06:44:11;;;;;;;;;10.75;10.25;;;;;;;;6489471;46;8962;-52
2023/08/10 06:50:13;;;;;;;;;11.50;10.75;;;;;;;;6488746;39;8890;-55
2023/08/10 06:56:16;;;;;;;;;10.75;9.50;;;;;;;;6488669;39;8816;-52
2023/08/10 07:02:18;;;;;;;;;10.75;9.00;;;;;;;;6488803;31;8937;-51
2023/08/10 07:08:20;;;;;;;;;6.75;6.75;;;;;;;;6487911;39;8907;-53
2023/08/10 07:14:24;;;;;;;;;9.00;7.00;;;;;;;;6489394;39;8862;-52
2023/08/10 07:20:26;;;;;;;;;8.00;8.00;;;;;;;;6485342;39;8954;-54
2023/08/10 07:26:29;;;;;;;;;8.25;7.75;;;;;;;;6487142;39;8830;-55
2023/08/10 07:32:31;;;;;;;;;6.00;6.00;;;;;;;;6487351;36;165806;-52
2023/08/10 07:38:34;;;;;;;;;6.00;6.00;;;;;;;;6488626;39;8903;-60
2023/08/10 07:44:36;;;;;;;;;9.50;8.75;;;;;;;;6487423;39;9050;-58
2023/08/10 07:50:40;;;;;;;;;9.00;9.00;;;;;;;;6486384;46;8870;-60
2023/08/10 07:56:44;;;;;;;;;10.50;7.50;;;;;;;;6488021;39;8832;-59
2023/08/10 08:02:49;;;;;;;;;10.50;9.75;;;;;;;;6487126;31;8922;-59
2023/08/10 08:08:52;;;;;;;;;10.50;10.25;;;;;;;;6489060;31;8896;-60
2023/08/10 08:14:55;;;;;;;;;12.00;10.75;;;;;;;;6488540;39;9595;-59
2023/08/10 08:20:58;;;;;;;;;8.00;8.00;;;;;;;;6487910;39;8851;-60
2023/08/10 08:27:09;;;;;;;;;8.75;8.75;;;;;;;;6487787;39;8851;-58
2023/08/10 08:33:13;;;;;;;;;6.50;6.50;;;;;;;;6486947;47;8919;-59
2023/08/10 08:39:19;;;;;;;;;9.25;9.00;;;;;;;;6488442;39;8931;-60
2023/08/10 08:45:25;;;;;;;;;10.25;10.25;;;;;;;;6488766;39;9551;-60
2023/08/10 08:51:29;;;;;;;;;8.25;8.25;;;;;;;;6486866;31;8928;-59
2023/08/10 08:57:34;;;;;;;;;8.75;8.75;;;;;;;;6487353;31;8886;-59
2023/08/10 09:03:41;;;;;;;;;12.75;12.75;;;;;;;;6487585;31;8944;-59
2023/08/10 09:09:44;;;;;;;;;10.00;9.50;;;;;;;;6485453;39;8923;-59
2023/08/10 09:16:12;;;;;;;;;8.25;7.75;;;;;;;;6485026;31;8960;-59
2023/08/10 09:22:35;;;;;;;;;5.75;5.25;;;;;;;;6488970;46;8911;-59
2023/08/10 09:28:39;;;;;;;;;7.50;7.50;;;;;;;;6488893;39;8896;-60
2023/08/10 09:34:45;;;;;;;;;6.00;6.00;;;;;;;;6488837;46;8898;-60
2023/08/10 09:41:06;;;;;;;;;7.00;7.00;;;;;;;;6488356;46;8905;-60
2023/08/10 09:47:09;;;;;;;;;7.50;7.50;;;;;;;;6486429;39;8876;-61
2023/08/10 09:53:11;;;;;;;;;9.25;7.00;;;;;;;;6487633;46;8955;-60
2023/08/10 09:59:16;;;;;;;;;6.75;6.75;;;;;;;;6487364;46;8860;-58
2023/08/10 10:05:22;;;;;;;;;6.50;5.50;;;;;;;;6488209;39;8963;-59
2023/08/10 10:11:38;;;;;;;;;6.50;6.50;;;;;;;;6489173;39;9531;-59
2023/08/10 10:17:42;;;;;;;;;6.00;6.00;;;;;;;;6489382;39;8845;-60
2023/08/10 10:23:50;;;;;;;;;8.25;8.25;;;;;;;;6487715;39;8930;-58
2023/08/10 10:30:02;;;;;;;;;6.75;5.00;;;;;;;;6487934;39;8876;-59
2023/08/10 10:36:18;;;;;;;;;6.00;6.00;;;;;;;;6486628;31;8903;-59
2023/08/10 10:42:25;;;;;;;;;6.50;6.50;;;;;;;;6485385;39;9011;-59
2023/08/10 10:48:35;;;;;;;;;6.50;6.25;;;;;;;;6487933;31;8864;-59
2023/08/10 10:54:40;;;;;;;;;7.50;7.50;;;;;;;;6486893;39;8927;-60
2023/08/10 11:00:47;;;;;;;;;5.25;5.25;;;;;;;;6488433;39;8895;-60
2023/08/10 11:06:51;;;;;;;;;6.00;6.00;;;;;;;;6486131;39;8845;-61
2023/08/10 11:12:54;;;;;;;;;7.25;6.50;;;;;;;;6488857;39;9603;-61
2023/08/10 11:18:58;;;;;;;;;7.50;6.75;;;;;;;;6487445;39;8872;-58
2023/08/10 11:25:12;;;;;;;;;7.00;7.00;;;;;;;;6488493;31;8912;-61
2023/08/10 11:31:15;;;;;;;;;7.00;6.75;;;;;;;;6488288;39;8896;-60
2023/08/10 11:37:18;;;;;;;;;5.00;5.00;;;;;;;;6483562;39;8871;-60
2023/08/10 11:43:25;;;;;;;;;7.25;7.25;;;;;;;;6485632;46;8928;-61
2023/08/10 11:49:31;;;;;;;;;5.00;5.00;;;;;;;;6487494;39;8914;-60
2023/08/10 11:55:45;;;;;;;;;6.25;6.25;;;;;;;;6484663;39;8855;-60
2023/08/10 12:01:57;;;;;;;;;5.75;5.75;;;;;;;;6484165;39;9123;-61
2023/08/10 12:08:05;;;;;;;;;4.00;4.00;;;;;;;;6486237;46;9007;-59
2023/08/10 12:14:08;;;;;;;;;6.75;6.75;;;;;;;;6486264;39;8887;-61
